<?xml version="1.0" encoding="UTF-8" standalone="no" ?>
<gpx xmlns="http://www.topografix.com/GPX/1/1" xmlns:xsi="http://www.w3.org/2001/XMLSchema-instance" xsi:schemaLocation="http://www.topografix.com/GPX/1/1 http://www.topografix.com/GPX/1/1/gpx.xsd" version="1.1" creator="VisuGPX - https://www.visugpx.com">
  <metadata>
    <name>GR20 etape 9</name>
  </metadata>
  <trk>
    <name><![CDATA[GR20 Traversée de la Corse (2020)]]></name>
    <trkseg>
      <trkpt lat="42.15277" lon="9.07302">
        <ele>1420.73</ele>
        <time>2020-03-20T02:56:04Z</time>
      </trkpt>
      <trkpt lat="42.1521" lon="9.07287">
        <ele>1442.324</ele>
        <time>2020-03-20T02:56:24Z</time>
      </trkpt>
      <trkpt lat="42.15363" lon="9.07176">
        <ele>1460.477</ele>
        <time>2020-03-20T02:56:44Z</time>
      </trkpt>
      <trkpt lat="42.15335" lon="9.07145">
        <ele>1468.463</ele>
        <time>2020-03-20T02:57:04Z</time>
      </trkpt>
      <trkpt lat="42.15293" lon="9.07139">
        <ele>1479.261</ele>
        <time>2020-03-20T02:57:24Z</time>
      </trkpt>
      <trkpt lat="42.1528" lon="9.07147">
        <ele>1480.121</ele>
        <time>2020-03-20T02:57:44Z</time>
      </trkpt>
      <trkpt lat="42.15214" lon="9.07152">
        <ele>1489.813</ele>
        <time>2020-03-20T02:58:04Z</time>
      </trkpt>
      <trkpt lat="42.15199" lon="9.07117">
        <ele>1499.008</ele>
        <time>2020-03-20T02:58:24Z</time>
      </trkpt>
      <trkpt lat="42.15172" lon="9.07098">
        <ele>1508.27</ele>
        <time>2020-03-20T02:58:44Z</time>
      </trkpt>
      <trkpt lat="42.15155" lon="9.07059">
        <ele>1511.853</ele>
        <time>2020-03-20T02:59:04Z</time>
      </trkpt>
      <trkpt lat="42.15127" lon="9.07068">
        <ele>1522.335</ele>
        <time>2020-03-20T02:59:24Z</time>
      </trkpt>
      <trkpt lat="42.151" lon="9.07064">
        <ele>1529.593</ele>
        <time>2020-03-20T02:59:44Z</time>
      </trkpt>
      <trkpt lat="42.15086" lon="9.07048">
        <ele>1530.667</ele>
        <time>2020-03-20T03:00:04Z</time>
      </trkpt>
      <trkpt lat="42.15023" lon="9.07059">
        <ele>1563.251</ele>
        <time>2020-03-20T03:00:24Z</time>
      </trkpt>
      <trkpt lat="42.14997" lon="9.07025">
        <ele>1571.424</ele>
        <time>2020-03-20T03:00:44Z</time>
      </trkpt>
      <trkpt lat="42.14951" lon="9.07063">
        <ele>1588.19</ele>
        <time>2020-03-20T03:01:04Z</time>
      </trkpt>
      <trkpt lat="42.14899" lon="9.07076">
        <ele>1603.672</ele>
        <time>2020-03-20T03:01:24Z</time>
      </trkpt>
      <trkpt lat="42.14875" lon="9.07102">
        <ele>1614.813</ele>
        <time>2020-03-20T03:01:44Z</time>
      </trkpt>
      <trkpt lat="42.1482" lon="9.07119">
        <ele>1637.514</ele>
        <time>2020-03-20T03:02:04Z</time>
      </trkpt>
      <trkpt lat="42.14797" lon="9.07141">
        <ele>1646.508</ele>
        <time>2020-03-20T03:02:24Z</time>
      </trkpt>
      <trkpt lat="42.14752" lon="9.07141">
        <ele>1660.581</ele>
        <time>2020-03-20T03:02:44Z</time>
      </trkpt>
      <trkpt lat="42.14742" lon="9.07172">
        <ele>1668.224</ele>
        <time>2020-03-20T03:03:04Z</time>
      </trkpt>
      <trkpt lat="42.1472" lon="9.07198">
        <ele>1685.166</ele>
        <time>2020-03-20T03:03:24Z</time>
      </trkpt>
      <trkpt lat="42.14672" lon="9.0723">
        <ele>1714.314</ele>
        <time>2020-03-20T03:03:44Z</time>
      </trkpt>
      <trkpt lat="42.14668" lon="9.07243">
        <ele>1719.048</ele>
        <time>2020-03-20T03:04:04Z</time>
      </trkpt>
      <trkpt lat="42.14643" lon="9.07251">
        <ele>1732.322</ele>
        <time>2020-03-20T03:04:24Z</time>
      </trkpt>
      <trkpt lat="42.14619" lon="9.07267">
        <ele>1748.185</ele>
        <time>2020-03-20T03:04:44Z</time>
      </trkpt>
      <trkpt lat="42.14618" lon="9.07286">
        <ele>1751.761</ele>
        <time>2020-03-20T03:05:04Z</time>
      </trkpt>
      <trkpt lat="42.1461" lon="9.07285">
        <ele>1756.636</ele>
        <time>2020-03-20T03:05:24Z</time>
      </trkpt>
      <trkpt lat="42.14608" lon="9.07304">
        <ele>1757.517</ele>
        <time>2020-03-20T03:05:44Z</time>
      </trkpt>
      <trkpt lat="42.1457" lon="9.0731">
        <ele>1773.918</ele>
        <time>2020-03-20T03:06:04Z</time>
      </trkpt>
      <trkpt lat="42.14537" lon="9.07305">
        <ele>1786.508</ele>
        <time>2020-03-20T03:06:24Z</time>
      </trkpt>
      <trkpt lat="42.14493" lon="9.07314">
        <ele>1805.377</ele>
        <time>2020-03-20T03:06:44Z</time>
      </trkpt>
      <trkpt lat="42.14458" lon="9.07315">
        <ele>1823.38</ele>
        <time>2020-03-20T03:07:04Z</time>
      </trkpt>
      <trkpt lat="42.14422" lon="9.07331">
        <ele>1831.912</ele>
        <time>2020-03-20T03:07:24Z</time>
      </trkpt>
      <trkpt lat="42.14392" lon="9.07336">
        <ele>1833.23</ele>
        <time>2020-03-20T03:07:44Z</time>
      </trkpt>
      <trkpt lat="42.14367" lon="9.07354">
        <ele>1832.924</ele>
        <time>2020-03-20T03:08:04Z</time>
      </trkpt>
      <trkpt lat="42.14311" lon="9.0737">
        <ele>1842.018</ele>
        <time>2020-03-20T03:08:24Z</time>
      </trkpt>
      <trkpt lat="42.14269" lon="9.07366">
        <ele>1852.051</ele>
        <time>2020-03-20T03:08:44Z</time>
      </trkpt>
      <trkpt lat="42.14199" lon="9.07433">
        <ele>1863.597</ele>
        <time>2020-03-20T03:09:04Z</time>
      </trkpt>
      <trkpt lat="42.14196" lon="9.0745">
        <ele>1866.821</ele>
        <time>2020-03-20T03:09:24Z</time>
      </trkpt>
      <trkpt lat="42.14127" lon="9.07442">
        <ele>1889.441</ele>
        <time>2020-03-20T03:09:44Z</time>
      </trkpt>
      <trkpt lat="42.14121" lon="9.07457">
        <ele>1894.405</ele>
        <time>2020-03-20T03:10:04Z</time>
      </trkpt>
      <trkpt lat="42.14087" lon="9.07473">
        <ele>1908.008</ele>
        <time>2020-03-20T03:10:24Z</time>
      </trkpt>
      <trkpt lat="42.14073" lon="9.07492">
        <ele>1911.956</ele>
        <time>2020-03-20T03:10:44Z</time>
      </trkpt>
      <trkpt lat="42.1405" lon="9.07506">
        <ele>1917.569</ele>
        <time>2020-03-20T03:11:04Z</time>
      </trkpt>
      <trkpt lat="42.14022" lon="9.07507">
        <ele>1923.481</ele>
        <time>2020-03-20T03:11:24Z</time>
      </trkpt>
      <trkpt lat="42.14009" lon="9.07533">
        <ele>1932.979</ele>
        <time>2020-03-20T03:11:44Z</time>
      </trkpt>
      <trkpt lat="42.13995" lon="9.07542">
        <ele>1938.743</ele>
        <time>2020-03-20T03:12:04Z</time>
      </trkpt>
      <trkpt lat="42.13978" lon="9.07534">
        <ele>1945.327</ele>
        <time>2020-03-20T03:12:24Z</time>
      </trkpt>
      <trkpt lat="42.13935" lon="9.07556">
        <ele>1955.45</ele>
        <time>2020-03-20T03:12:44Z</time>
      </trkpt>
      <trkpt lat="42.13925" lon="9.07553">
        <ele>1956.636</ele>
        <time>2020-03-20T03:13:04Z</time>
      </trkpt>
      <trkpt lat="42.13915" lon="9.07562">
        <ele>1959.619</ele>
        <time>2020-03-20T03:13:24Z</time>
      </trkpt>
      <trkpt lat="42.13911" lon="9.0758">
        <ele>1963.109</ele>
        <time>2020-03-20T03:13:44Z</time>
      </trkpt>
      <trkpt lat="42.13878" lon="9.07562">
        <ele>1973.419</ele>
        <time>2020-03-20T03:14:04Z</time>
      </trkpt>
      <trkpt lat="42.13858" lon="9.0757">
        <ele>1982.008</ele>
        <time>2020-03-20T03:14:24Z</time>
      </trkpt>
      <trkpt lat="42.13851" lon="9.07587">
        <ele>1988.055</ele>
        <time>2020-03-20T03:14:44Z</time>
      </trkpt>
      <trkpt lat="42.13825" lon="9.07575">
        <ele>2001.248</ele>
        <time>2020-03-20T03:15:04Z</time>
      </trkpt>
      <trkpt lat="42.13816" lon="9.07584">
        <ele>2008.16</ele>
        <time>2020-03-20T03:15:24Z</time>
      </trkpt>
      <trkpt lat="42.13789" lon="9.07573">
        <ele>2014.148</ele>
        <time>2020-03-20T03:15:44Z</time>
      </trkpt>
      <trkpt lat="42.13774" lon="9.07564">
        <ele>2012.492</ele>
        <time>2020-03-20T03:16:04Z</time>
      </trkpt>
      <trkpt lat="42.13749" lon="9.07584">
        <ele>2031.466</ele>
        <time>2020-03-20T03:16:24Z</time>
      </trkpt>
      <trkpt lat="42.13752" lon="9.07601">
        <ele>2037.879</ele>
        <time>2020-03-20T03:16:44Z</time>
      </trkpt>
      <trkpt lat="42.13738" lon="9.07601">
        <ele>2042.025</ele>
        <time>2020-03-20T03:17:04Z</time>
      </trkpt>
      <trkpt lat="42.13722" lon="9.07613">
        <ele>2053.287</ele>
        <time>2020-03-20T03:17:24Z</time>
      </trkpt>
      <trkpt lat="42.13698" lon="9.07619">
        <ele>2068.842</ele>
        <time>2020-03-20T03:17:44Z</time>
      </trkpt>
      <trkpt lat="42.13692" lon="9.07633">
        <ele>2078.126</ele>
        <time>2020-03-20T03:18:04Z</time>
      </trkpt>
      <trkpt lat="42.13706" lon="9.07645">
        <ele>2075.508</ele>
        <time>2020-03-20T03:18:24Z</time>
      </trkpt>
      <trkpt lat="42.13696" lon="9.07649">
        <ele>2081.432</ele>
        <time>2020-03-20T03:18:44Z</time>
      </trkpt>
      <trkpt lat="42.13698" lon="9.07661">
        <ele>2082.125</ele>
        <time>2020-03-20T03:19:04Z</time>
      </trkpt>
      <trkpt lat="42.13688" lon="9.07668">
        <ele>2084.987</ele>
        <time>2020-03-20T03:19:24Z</time>
      </trkpt>
      <trkpt lat="42.13682" lon="9.07717">
        <ele>2086.055</ele>
        <time>2020-03-20T03:19:44Z</time>
      </trkpt>
      <trkpt lat="42.13671" lon="9.0773">
        <ele>2083.689</ele>
        <time>2020-03-20T03:20:04Z</time>
      </trkpt>
      <trkpt lat="42.1367" lon="9.07762">
        <ele>2080.113</ele>
        <time>2020-03-20T03:20:24Z</time>
      </trkpt>
      <trkpt lat="42.13688" lon="9.07823">
        <ele>2068.996</ele>
        <time>2020-03-20T03:20:44Z</time>
      </trkpt>
      <trkpt lat="42.13673" lon="9.07864">
        <ele>2057.272</ele>
        <time>2020-03-20T03:21:04Z</time>
      </trkpt>
      <trkpt lat="42.13672" lon="9.07967">
        <ele>2038.893</ele>
        <time>2020-03-20T03:21:24Z</time>
      </trkpt>
      <trkpt lat="42.13696" lon="9.08144">
        <ele>2032.665</ele>
        <time>2020-03-20T03:21:44Z</time>
      </trkpt>
      <trkpt lat="42.13725" lon="9.08248">
        <ele>2027.921</ele>
        <time>2020-03-20T03:22:04Z</time>
      </trkpt>
      <trkpt lat="42.13712" lon="9.08297">
        <ele>2012.808</ele>
        <time>2020-03-20T03:22:24Z</time>
      </trkpt>
      <trkpt lat="42.1372" lon="9.08473">
        <ele>1990.913</ele>
        <time>2020-03-20T03:22:44Z</time>
      </trkpt>
      <trkpt lat="42.13692" lon="9.08516">
        <ele>1970.226</ele>
        <time>2020-03-20T03:23:04Z</time>
      </trkpt>
      <trkpt lat="42.1367" lon="9.08519">
        <ele>1954.188</ele>
        <time>2020-03-20T03:23:24Z</time>
      </trkpt>
      <trkpt lat="42.13656" lon="9.08536">
        <ele>1940.816</ele>
        <time>2020-03-20T03:23:44Z</time>
      </trkpt>
      <trkpt lat="42.1364" lon="9.0854">
        <ele>1929.19</ele>
        <time>2020-03-20T03:24:04Z</time>
      </trkpt>
      <trkpt lat="42.13631" lon="9.08546">
        <ele>1923.634</ele>
        <time>2020-03-20T03:24:24Z</time>
      </trkpt>
      <trkpt lat="42.13616" lon="9.08523">
        <ele>1921.947</ele>
        <time>2020-03-20T03:24:44Z</time>
      </trkpt>
      <trkpt lat="42.13603" lon="9.08474">
        <ele>1921.443</ele>
        <time>2020-03-20T03:25:04Z</time>
      </trkpt>
      <trkpt lat="42.13574" lon="9.08425">
        <ele>1910.256</ele>
        <time>2020-03-20T03:25:24Z</time>
      </trkpt>
      <trkpt lat="42.13549" lon="9.08436">
        <ele>1895.159</ele>
        <time>2020-03-20T03:25:44Z</time>
      </trkpt>
      <trkpt lat="42.13535" lon="9.08417">
        <ele>1890.014</ele>
        <time>2020-03-20T03:26:04Z</time>
      </trkpt>
      <trkpt lat="42.13508" lon="9.08423">
        <ele>1874.208</ele>
        <time>2020-03-20T03:26:24Z</time>
      </trkpt>
      <trkpt lat="42.13494" lon="9.08467">
        <ele>1863.229</ele>
        <time>2020-03-20T03:26:44Z</time>
      </trkpt>
      <trkpt lat="42.13475" lon="9.08462">
        <ele>1852.392</ele>
        <time>2020-03-20T03:27:04Z</time>
      </trkpt>
      <trkpt lat="42.1345" lon="9.08444">
        <ele>1842.134</ele>
        <time>2020-03-20T03:27:24Z</time>
      </trkpt>
      <trkpt lat="42.1343" lon="9.08458">
        <ele>1827.522</ele>
        <time>2020-03-20T03:27:44Z</time>
      </trkpt>
      <trkpt lat="42.1342" lon="9.08486">
        <ele>1818.276</ele>
        <time>2020-03-20T03:28:04Z</time>
      </trkpt>
      <trkpt lat="42.13405" lon="9.08492">
        <ele>1810.14</ele>
        <time>2020-03-20T03:28:24Z</time>
      </trkpt>
      <trkpt lat="42.13397" lon="9.08532">
        <ele>1798.783</ele>
        <time>2020-03-20T03:28:44Z</time>
      </trkpt>
      <trkpt lat="42.13386" lon="9.08546">
        <ele>1789.449</ele>
        <time>2020-03-20T03:29:04Z</time>
      </trkpt>
      <trkpt lat="42.1336" lon="9.08542">
        <ele>1774.632</ele>
        <time>2020-03-20T03:29:24Z</time>
      </trkpt>
      <trkpt lat="42.1333" lon="9.08482">
        <ele>1763.692</ele>
        <time>2020-03-20T03:29:44Z</time>
      </trkpt>
      <trkpt lat="42.13324" lon="9.0845">
        <ele>1765.111</ele>
        <time>2020-03-20T03:30:04Z</time>
      </trkpt>
      <trkpt lat="42.13276" lon="9.08492">
        <ele>1738.608</ele>
        <time>2020-03-20T03:30:24Z</time>
      </trkpt>
      <trkpt lat="42.13271" lon="9.08512">
        <ele>1733.997</ele>
        <time>2020-03-20T03:30:44Z</time>
      </trkpt>
      <trkpt lat="42.13225" lon="9.08504">
        <ele>1718.01</ele>
        <time>2020-03-20T03:31:04Z</time>
      </trkpt>
      <trkpt lat="42.1321" lon="9.08484">
        <ele>1715.832</ele>
        <time>2020-03-20T03:31:24Z</time>
      </trkpt>
      <trkpt lat="42.13191" lon="9.0848">
        <ele>1709.96</ele>
        <time>2020-03-20T03:31:44Z</time>
      </trkpt>
      <trkpt lat="42.13175" lon="9.08464">
        <ele>1706.864</ele>
        <time>2020-03-20T03:32:04Z</time>
      </trkpt>
      <trkpt lat="42.13146" lon="9.08474">
        <ele>1692.678</ele>
        <time>2020-03-20T03:32:24Z</time>
      </trkpt>
      <trkpt lat="42.13144" lon="9.08516">
        <ele>1679.391</ele>
        <time>2020-03-20T03:32:44Z</time>
      </trkpt>
      <trkpt lat="42.13159" lon="9.08584">
        <ele>1669.687</ele>
        <time>2020-03-20T03:33:04Z</time>
      </trkpt>
      <trkpt lat="42.13129" lon="9.08604">
        <ele>1653.183</ele>
        <time>2020-03-20T03:33:24Z</time>
      </trkpt>
      <trkpt lat="42.13067" lon="9.08575">
        <ele>1635.425</ele>
        <time>2020-03-20T03:33:44Z</time>
      </trkpt>
      <trkpt lat="42.12957" lon="9.08621">
        <ele>1609.317</ele>
        <time>2020-03-20T03:34:04Z</time>
      </trkpt>
      <trkpt lat="42.12943" lon="9.08694">
        <ele>1594.008</ele>
        <time>2020-03-20T03:34:24Z</time>
      </trkpt>
      <trkpt lat="42.12874" lon="9.08768">
        <ele>1578.642</ele>
        <time>2020-03-20T03:34:44Z</time>
      </trkpt>
      <trkpt lat="42.12839" lon="9.08785">
        <ele>1574.065</ele>
        <time>2020-03-20T03:35:04Z</time>
      </trkpt>
      <trkpt lat="42.12796" lon="9.08765">
        <ele>1554.177</ele>
        <time>2020-03-20T03:35:24Z</time>
      </trkpt>
      <trkpt lat="42.12738" lon="9.08788">
        <ele>1546.025</ele>
        <time>2020-03-20T03:35:44Z</time>
      </trkpt>
      <trkpt lat="42.12724" lon="9.08769">
        <ele>1539.789</ele>
        <time>2020-03-20T03:36:04Z</time>
      </trkpt>
      <trkpt lat="42.12686" lon="9.08754">
        <ele>1525.553</ele>
        <time>2020-03-20T03:36:24Z</time>
      </trkpt>
      <trkpt lat="42.12628" lon="9.08752">
        <ele>1509.386</ele>
        <time>2020-03-20T03:36:44Z</time>
      </trkpt>
      <trkpt lat="42.12598" lon="9.08801">
        <ele>1507.542</ele>
        <time>2020-03-20T03:37:04Z</time>
      </trkpt>
      <trkpt lat="42.1256" lon="9.08816">
        <ele>1500.437</ele>
        <time>2020-03-20T03:37:24Z</time>
      </trkpt>
      <trkpt lat="42.12547" lon="9.0885">
        <ele>1499.149</ele>
        <time>2020-03-20T03:37:44Z</time>
      </trkpt>
      <trkpt lat="42.12534" lon="9.08867">
        <ele>1495.413</ele>
        <time>2020-03-20T03:38:04Z</time>
      </trkpt>
      <trkpt lat="42.12512" lon="9.08932">
        <ele>1487.508</ele>
        <time>2020-03-20T03:38:24Z</time>
      </trkpt>
      <trkpt lat="42.12473" lon="9.08953">
        <ele>1473.717</ele>
        <time>2020-03-20T03:38:44Z</time>
      </trkpt>
      <trkpt lat="42.12429" lon="9.08963">
        <ele>1460.05</ele>
        <time>2020-03-20T03:39:04Z</time>
      </trkpt>
      <trkpt lat="42.12386" lon="9.08999">
        <ele>1451.582</ele>
        <time>2020-03-20T03:39:24Z</time>
      </trkpt>
      <trkpt lat="42.12373" lon="9.09001">
        <ele>1449.12</ele>
        <time>2020-03-20T03:39:44Z</time>
      </trkpt>
      <trkpt lat="42.12355" lon="9.09024">
        <ele>1445.544</ele>
        <time>2020-03-20T03:40:04Z</time>
      </trkpt>
      <trkpt lat="42.12318" lon="9.09039">
        <ele>1437.568</ele>
        <time>2020-03-20T03:40:24Z</time>
      </trkpt>
      <trkpt lat="42.1228" lon="9.09046">
        <ele>1432.621</ele>
        <time>2020-03-20T03:40:44Z</time>
      </trkpt>
      <trkpt lat="42.12245" lon="9.09085">
        <ele>1424.437</ele>
        <time>2020-03-20T03:41:04Z</time>
      </trkpt>
      <trkpt lat="42.12236" lon="9.09107">
        <ele>1422.759</ele>
        <time>2020-03-20T03:41:24Z</time>
      </trkpt>
      <trkpt lat="42.12183" lon="9.09168">
        <ele>1415.903</ele>
        <time>2020-03-20T03:41:44Z</time>
      </trkpt>
      <trkpt lat="42.12145" lon="9.09188">
        <ele>1416.223</ele>
        <time>2020-03-20T03:42:04Z</time>
      </trkpt>
      <trkpt lat="42.12144" lon="9.0921">
        <ele>1412.208</ele>
        <time>2020-03-20T03:42:24Z</time>
      </trkpt>
      <trkpt lat="42.12143" lon="9.09298">
        <ele>1391.599</ele>
        <time>2020-03-20T03:42:44Z</time>
      </trkpt>
      <trkpt lat="42.1213" lon="9.09337">
        <ele>1383.622</ele>
        <time>2020-03-20T03:43:04Z</time>
      </trkpt>
      <trkpt lat="42.12107" lon="9.09355">
        <ele>1385.964</ele>
        <time>2020-03-20T03:43:24Z</time>
      </trkpt>
      <trkpt lat="42.12106" lon="9.09383">
        <ele>1381.632</ele>
        <time>2020-03-20T03:43:44Z</time>
      </trkpt>
      <trkpt lat="42.12113" lon="9.09466">
        <ele>1365.286</ele>
        <time>2020-03-20T03:44:04Z</time>
      </trkpt>
      <trkpt lat="42.12081" lon="9.09516">
        <ele>1359.25</ele>
        <time>2020-03-20T03:44:24Z</time>
      </trkpt>
      <trkpt lat="42.12052" lon="9.09583">
        <ele>1345.273</ele>
        <time>2020-03-20T03:44:44Z</time>
      </trkpt>
      <trkpt lat="42.12022" lon="9.09605">
        <ele>1341.559</ele>
        <time>2020-03-20T03:45:04Z</time>
      </trkpt>
      <trkpt lat="42.12013" lon="9.09657">
        <ele>1337.175</ele>
        <time>2020-03-20T03:45:24Z</time>
      </trkpt>
      <trkpt lat="42.11994" lon="9.097">
        <ele>1336.328</ele>
        <time>2020-03-20T03:45:44Z</time>
      </trkpt>
      <trkpt lat="42.1199" lon="9.09739">
        <ele>1331.32</ele>
        <time>2020-03-20T03:46:04Z</time>
      </trkpt>
      <trkpt lat="42.11977" lon="9.09753">
        <ele>1328.808</ele>
        <time>2020-03-20T03:46:24Z</time>
      </trkpt>
      <trkpt lat="42.11965" lon="9.0982">
        <ele>1317.251</ele>
        <time>2020-03-20T03:46:44Z</time>
      </trkpt>
      <trkpt lat="42.11943" lon="9.09869">
        <ele>1303.184</ele>
        <time>2020-03-20T03:47:04Z</time>
      </trkpt>
      <trkpt lat="42.11943" lon="9.09935">
        <ele>1287.076</ele>
        <time>2020-03-20T03:47:24Z</time>
      </trkpt>
      <trkpt lat="42.11903" lon="9.10001">
        <ele>1281.874</ele>
        <time>2020-03-20T03:47:44Z</time>
      </trkpt>
      <trkpt lat="42.119" lon="9.10022">
        <ele>1279.628</ele>
        <time>2020-03-20T03:48:04Z</time>
      </trkpt>
      <trkpt lat="42.11905" lon="9.10041">
        <ele>1276.362</ele>
        <time>2020-03-20T03:48:24Z</time>
      </trkpt>
      <trkpt lat="42.11896" lon="9.10096">
        <ele>1278.335</ele>
        <time>2020-03-20T03:48:44Z</time>
      </trkpt>
      <trkpt lat="42.11949" lon="9.10166">
        <ele>1268.341</ele>
        <time>2020-03-20T03:49:04Z</time>
      </trkpt>
      <trkpt lat="42.11955" lon="9.10236">
        <ele>1262.333</ele>
        <time>2020-03-20T03:49:24Z</time>
      </trkpt>
      <trkpt lat="42.11935" lon="9.10305">
        <ele>1266.923</ele>
        <time>2020-03-20T03:49:44Z</time>
      </trkpt>
      <trkpt lat="42.11937" lon="9.1036">
        <ele>1264.815</ele>
        <time>2020-03-20T03:50:04Z</time>
      </trkpt>
      <trkpt lat="42.11947" lon="9.10446">
        <ele>1249.208</ele>
        <time>2020-03-20T03:50:24Z</time>
      </trkpt>
      <trkpt lat="42.11947" lon="9.105">
        <ele>1240.747</ele>
        <time>2020-03-20T03:50:44Z</time>
      </trkpt>
      <trkpt lat="42.11936" lon="9.10545">
        <ele>1238.86</ele>
        <time>2020-03-20T03:51:04Z</time>
      </trkpt>
      <trkpt lat="42.11912" lon="9.10601">
        <ele>1236.482</ele>
        <time>2020-03-20T03:51:24Z</time>
      </trkpt>
      <trkpt lat="42.11909" lon="9.10659">
        <ele>1222.58</ele>
        <time>2020-03-20T03:51:44Z</time>
      </trkpt>
      <trkpt lat="42.1189" lon="9.10708">
        <ele>1214.434</ele>
        <time>2020-03-20T03:52:04Z</time>
      </trkpt>
      <trkpt lat="42.11853" lon="9.10737">
        <ele>1211.438</ele>
        <time>2020-03-20T03:52:24Z</time>
      </trkpt>
      <trkpt lat="42.11849" lon="9.10749">
        <ele>1206.921</ele>
        <time>2020-03-20T03:52:44Z</time>
      </trkpt>
      <trkpt lat="42.11833" lon="9.10763">
        <ele>1202.337</ele>
        <time>2020-03-20T03:53:04Z</time>
      </trkpt>
      <trkpt lat="42.11802" lon="9.10833">
        <ele>1175.058</ele>
        <time>2020-03-20T03:53:24Z</time>
      </trkpt>
      <trkpt lat="42.11789" lon="9.10866">
        <ele>1160.052</ele>
        <time>2020-03-20T03:53:44Z</time>
      </trkpt>
      <trkpt lat="42.11777" lon="9.10908">
        <ele>1142.717</ele>
        <time>2020-03-20T03:54:04Z</time>
      </trkpt>
      <trkpt lat="42.11637" lon="9.11059">
        <ele>1107.808</ele>
        <time>2020-03-20T03:54:24Z</time>
      </trkpt>
      <trkpt lat="42.1161" lon="9.11114">
        <ele>1109.349</ele>
        <time>2020-03-20T03:54:44Z</time>
      </trkpt>
      <trkpt lat="42.11608" lon="9.1118">
        <ele>1108.652</ele>
        <time>2020-03-20T03:55:04Z</time>
      </trkpt>
      <trkpt lat="42.1162" lon="9.11235">
        <ele>1102.964</ele>
        <time>2020-03-20T03:55:24Z</time>
      </trkpt>
      <trkpt lat="42.1165" lon="9.11241">
        <ele>1098.692</ele>
        <time>2020-03-20T03:55:44Z</time>
      </trkpt>
      <trkpt lat="42.1168" lon="9.11261">
        <ele>1100.456</ele>
        <time>2020-03-20T03:56:04Z</time>
      </trkpt>
      <trkpt lat="42.11683" lon="9.1131">
        <ele>1098.68</ele>
        <time>2020-03-20T03:56:24Z</time>
      </trkpt>
      <trkpt lat="42.11714" lon="9.11375">
        <ele>1103.353</ele>
        <time>2020-03-20T03:56:44Z</time>
      </trkpt>
      <trkpt lat="42.11731" lon="9.11432">
        <ele>1098.819</ele>
        <time>2020-03-20T03:57:04Z</time>
      </trkpt>
      <trkpt lat="42.11747" lon="9.11606">
        <ele>1084.294</ele>
        <time>2020-03-20T03:57:24Z</time>
      </trkpt>
      <trkpt lat="42.11733" lon="9.11693">
        <ele>1080.657</ele>
        <time>2020-03-20T03:57:44Z</time>
      </trkpt>
      <trkpt lat="42.1175" lon="9.1177">
        <ele>1076.622</ele>
        <time>2020-03-20T03:58:04Z</time>
      </trkpt>
      <trkpt lat="42.11754" lon="9.11853">
        <ele>1072.608</ele>
        <time>2020-03-20T03:58:24Z</time>
      </trkpt>
      <trkpt lat="42.11778" lon="9.12024">
        <ele>1063.583</ele>
        <time>2020-03-20T03:58:44Z</time>
      </trkpt>
      <trkpt lat="42.11836" lon="9.12084">
        <ele>1054.156</ele>
        <time>2020-03-20T03:59:04Z</time>
      </trkpt>
      <trkpt lat="42.11877" lon="9.12147">
        <ele>1045.748</ele>
        <time>2020-03-20T03:59:24Z</time>
      </trkpt>
      <trkpt lat="42.11927" lon="9.12279">
        <ele>1032.266</ele>
        <time>2020-03-20T03:59:44Z</time>
      </trkpt>
      <trkpt lat="42.11944" lon="9.12315">
        <ele>1029.45</ele>
        <time>2020-03-20T04:00:04Z</time>
      </trkpt>
      <trkpt lat="42.11993" lon="9.1236">
        <ele>1026.274</ele>
        <time>2020-03-20T04:00:24Z</time>
      </trkpt>
      <trkpt lat="42.12037" lon="9.12393">
        <ele>1029.927</ele>
        <time>2020-03-20T04:00:44Z</time>
      </trkpt>
      <trkpt lat="42.12067" lon="9.12433">
        <ele>1024.713</ele>
        <time>2020-03-20T04:01:04Z</time>
      </trkpt>
      <trkpt lat="42.12102" lon="9.12575">
        <ele>1004.748</ele>
        <time>2020-03-20T04:01:24Z</time>
      </trkpt>
      <trkpt lat="42.12105" lon="9.12617">
        <ele>999.961</ele>
        <time>2020-03-20T04:01:44Z</time>
      </trkpt>
      <trkpt lat="42.12098" lon="9.12666">
        <ele>995.617</ele>
        <time>2020-03-20T04:02:04Z</time>
      </trkpt>
      <trkpt lat="42.12123" lon="9.12755">
        <ele>988.908</ele>
        <time>2020-03-20T04:02:24Z</time>
      </trkpt>
      <trkpt lat="42.12136" lon="9.1278">
        <ele>985.988</ele>
        <time>2020-03-20T04:02:44Z</time>
      </trkpt>
      <trkpt lat="42.12165" lon="9.12796">
        <ele>983.171</ele>
        <time>2020-03-20T04:03:04Z</time>
      </trkpt>
      <trkpt lat="42.12211" lon="9.12859">
        <ele>979.393</ele>
        <time>2020-03-20T04:03:24Z</time>
      </trkpt>
      <trkpt lat="42.12252" lon="9.12858">
        <ele>976.231</ele>
        <time>2020-03-20T04:03:44Z</time>
      </trkpt>
      <trkpt lat="42.12271" lon="9.12868">
        <ele>975.655</ele>
        <time>2020-03-20T04:04:04Z</time>
      </trkpt>
      <trkpt lat="42.12334" lon="9.1284">
        <ele>980.879</ele>
        <time>2020-03-20T04:04:24Z</time>
      </trkpt>
      <trkpt lat="42.12383" lon="9.12812">
        <ele>981.662</ele>
        <time>2020-03-20T04:04:44Z</time>
      </trkpt>
      <trkpt lat="42.12409" lon="9.12812">
        <ele>983.158</ele>
        <time>2020-03-20T04:05:04Z</time>
      </trkpt>
      <trkpt lat="42.12449" lon="9.12848">
        <ele>971.794</ele>
        <time>2020-03-20T04:05:24Z</time>
      </trkpt>
      <trkpt lat="42.12608" lon="9.12908">
        <ele>959.257</ele>
        <time>2020-03-20T04:05:44Z</time>
      </trkpt>
      <trkpt lat="42.12661" lon="9.12908">
        <ele>955.722</ele>
        <time>2020-03-20T04:06:04Z</time>
      </trkpt>
      <trkpt lat="42.12628" lon="9.12983">
        <ele>954.808</ele>
        <time>2020-03-20T04:06:24Z</time>
      </trkpt>
      <trkpt lat="42.12651" lon="9.13032">
        <ele>950.683</ele>
        <time>2020-03-20T04:06:44Z</time>
      </trkpt>
      <trkpt lat="42.12573" lon="9.13076">
        <ele>965.346</ele>
        <time>2020-03-20T04:07:04Z</time>
      </trkpt>
      <trkpt lat="42.12567" lon="9.13102">
        <ele>966.998</ele>
        <time>2020-03-20T04:07:24Z</time>
      </trkpt>
      <trkpt lat="42.1258" lon="9.13118">
        <ele>966.926</ele>
        <time>2020-03-20T04:07:44Z</time>
      </trkpt>
      <trkpt lat="42.12615" lon="9.13129">
        <ele>963.86</ele>
        <time>2020-03-20T04:08:04Z</time>
      </trkpt>
      <trkpt lat="42.1267" lon="9.1316">
        <ele>953.874</ele>
        <time>2020-03-20T04:08:24Z</time>
      </trkpt>
      <trkpt lat="42.12686" lon="9.13248">
        <ele>952.537</ele>
        <time>2020-03-20T04:08:44Z</time>
      </trkpt>
      <trkpt lat="42.12683" lon="9.13323">
        <ele>961.683</ele>
        <time>2020-03-20T04:09:04Z</time>
      </trkpt>
    </trkseg>
  </trk>
</gpx>